Latest Weather Observations for Mount Isa

IDQ60801

Issued at 5:35 pm EST Friday 31 October 2014 (issued every 30 minutes, with the page automatically refreshed every 10 minutes)

About weather observations | Map of weather stations | Latest weather observations for QLD | Other Formats
Station Details ID: 029127 Name: MOUNT ISA AERO Lat: -20.68 Lon: 139.49 Height: 340.3 m
Data from the previous 72 hours. | See also: Recent months at Mount Isa
Date/Time
EST
Temp
°C
App
Temp
°C
Dew
Point
Rel
Hum
%
Delta-T
°C
Wind Press
QNH
hPa
Press
MSL
hPa
Rain
since 9 am
mm
Dir
 
Spd
km/h
Gust
km/h
Spd
kts
Gust
kts
31/05:30pm 39.9 34.8 -9.9 4 22.2 NNW 11 19 6 10 1007.1 - 0.0
31/05:00pm 40.1 33.6 -8.0 4 22.1 E 19 28 10 15 1007.0 - 0.0
31/04:30pm 39.7 34.6 -9.3 4 21.9 NE 11 22 6 12 1007.1 - 0.0
31/04:00pm 40.6 36.0 -8.0 4 22.3 NNW 9 19 5 10 1007.3 - 0.0
31/03:30pm 41.0 35.9 -9.2 4 22.7 WSW 11 22 6 12 1007.4 - 0.0
31/03:00pm 41.0 35.9 -9.3 4 22.8 NNW 11 19 6 10 1007.6 1005.6 0.0
31/02:30pm 39.7 34.6 -9.3 4 21.9 WNW 11 22 6 12 1008.1 - 0.0
31/02:00pm 39.9 34.6 -7.5 5 21.8 N 13 24 7 13 1008.4 - 0.0
31/01:30pm 38.8 33.3 -9.8 4 21.4 N 13 26 7 14 1009.0 - 0.0
31/01:00pm 38.9 34.6 -9.3 4 21.5 ESE 7 15 4 8 1009.4 - 0.0
31/12:30pm 38.7 32.2 -13.5 3 21.8 N 17 28 9 15 1010.0 - 0.0
31/12:00pm 38.6 32.6 -12.0 3 21.6 N 15 24 8 13 1010.5 1008.5 0.0
31/11:30am 37.9 32.3 -10.4 4 21.0 E 13 26 7 14 1011.3 - 0.0
31/11:00am 38.3 32.1 -15.3 3 21.7 NNW 15 26 8 14 1011.5 - 0.0
31/10:30am 37.4 32.1 -12.4 4 20.9 ENE 11 24 6 13 1011.9 - 0.0
31/10:00am 36.3 29.9 -11.0 4 20.1 NE 17 19 9 10 1012.1 - 0.0
31/09:30am 35.6 30.1 -9.4 5 19.5 ESE 13 19 7 10 1012.1 - 0.0
31/09:00am 34.4 28.8 -11.2 5 19.0 SE 13 17 7 9 1012.1 1010.1 0.0
31/08:30am 33.5 29.5 -7.4 7 18.0 SSE 6 15 3 8 1011.9 - 0.0
31/08:00am 30.1 27.6 -3.6 11 15.4 CALM 0 0 0 0 1011.5 - 0.0
31/07:30am 26.9 24.1 -7.0 10 14.2 CALM 0 0 0 0 1011.3 - 0.0
31/07:27am 26.6 23.9 -5.6 11 13.8 CALM 0 0 0 0 1011.3 - 0.0
31/07:00am 21.6 18.3 -0.9 22 10.1 S 6 7 3 4 1011.0 - 0.0
31/06:30am 17.9 14.6 -4.8 21 9.1 E 4 7 2 4 1010.8 - 0.0
31/06:00am 17.7 13.9 -5.3 20 9.1 N 6 7 3 4 1010.6 1008.6 0.0
31/05:30am 17.0 14.5 -4.1 23 8.5 CALM 0 0 0 0 1010.2 - 0.0
31/05:00am 16.9 14.7 -1.4 28 7.8 CALM 0 0 0 0 1010.2 - 0.0
31/04:30am 16.1 13.7 -3.4 26 7.9 CALM 0 0 0 0 1010.0 - 0.0
31/04:00am 15.8 13.2 -5.3 23 8.2 CALM 0 0 0 0 1009.9 - 0.0
31/03:30am 16.3 13.9 -2.9 26 7.9 CALM 0 0 0 0 1009.7 - 0.0
31/03:00am 16.7 14.3 -0.6 31 7.5 W 2 7 1 4 1009.8 1007.8 0.0
31/02:30am 17.7 14.0 -4.3 22 8.9 W 6 7 3 4 1009.8 - 0.0
31/02:00am 17.9 15.1 -3.4 23 8.8 W 2 7 1 4 1009.9 - 0.0
31/01:30am 18.0 14.6 -2.4 25 8.6 SW 6 7 3 4 1009.9 - 0.0
31/01:00am 18.9 15.4 -1.7 24 8.9 SSW 7 7 4 4 1010.1 - 0.0
31/12:30am 20.4 17.6 -0.7 24 9.4 S 4 7 2 4 1010.3 - 0.0
31/12:27am 20.8 18.4 -0.2 24 9.5 SSE 2 7 1 4 1010.3 - 0.0
31/12:00am 25.8 23.6 -1.8 16 12.6 SSE 0 4 0 2 1010.6 1008.6 0.0
 
Date/Time
EST
Temp
°C
App
Temp
°C
Dew
Point
Rel
Hum
%
Delta-T
°C
Wind Press
QNH
hPa
Press
MSL
hPa
Rain
since 9 am
mm
Dir
 
Spd
km/h
Gust
km/h
Spd
kts
Gust
kts
30/11:30pm 27.3 22.7 -8.1 9 14.6 S 9 11 5 6 1010.8 - 0.0
30/11:00pm 23.2 19.1 -0.3 21 10.8 SSE 11 11 6 6 1010.9 - 0.0
30/10:30pm 25.1 21.0 -0.1 19 11.8 S 11 13 6 7 1010.9 - 0.0
30/10:00pm 29.2 24.9 -5.3 10 15.2 S 9 11 5 6 1010.9 - 0.0
30/09:30pm 31.3 26.4 -7.2 8 16.7 SSW 11 13 6 7 1010.7 - 0.0
30/09:00pm 27.2 23.7 1.0 18 12.7 SW 9 11 5 6 1010.4 1008.4 0.0
30/08:30pm 30.7 26.4 -1.8 12 15.4 S 11 15 6 8 1010.0 - 0.0
30/08:00pm 32.8 27.7 -4.8 8 17.2 SSW 13 15 7 8 1009.7 - 0.0
30/07:30pm 34.3 28.6 -7.5 6 18.5 SW 15 22 8 12 1009.4 - 0.0
30/07:00pm 35.7 29.1 -14.3 3 20.0 SW 17 20 9 11 1009.0 - 0.0
30/06:30pm 36.6 29.3 -17.8 2 20.8 SSW 20 28 11 15 1008.7 - 0.0
30/06:00pm 37.5 30.1 -20.6 2 21.6 SSW 20 28 11 15 1008.4 1006.4 0.0
30/05:30pm 38.0 30.0 -17.3 2 21.6 SSE 24 35 13 19 1007.9 - 0.0
30/05:00pm 39.2 33.5 -12.2 3 21.9 S 13 17 7 9 1007.8 - 0.0
30/04:30pm 39.3 31.6 -17.6 2 22.4 WSW 22 30 12 16 1007.9 - 0.0
30/04:00pm 39.5 31.8 -17.3 2 22.5 S 22 33 12 18 1007.9 - 0.0
30/03:30pm 39.4 32.3 -18.2 2 22.5 SSW 19 35 10 19 1008.1 - 0.0
30/03:00pm 38.9 30.1 -16.8 2 22.2 SW 28 35 15 19 1008.4 1006.4 0.0
30/02:30pm 39.2 30.5 -14.5 3 22.1 SW 28 35 15 19 1008.8 - 0.0
30/02:00pm 38.6 30.0 -13.0 3 21.7 S 28 35 15 19 1009.3 - 0.0
30/01:30pm 38.6 31.7 -10.1 4 21.4 WSW 20 39 11 21 1009.8 - 0.0
30/01:00pm 39.1 33.6 -9.2 4 21.6 SSW 13 24 7 13 1010.4 - 0.0
30/12:30pm 38.1 33.5 -7.7 5 20.8 W 9 15 5 8 1011.2 - 0.0
30/12:00pm 37.6 31.1 -7.8 5 20.5 WSW 19 33 10 18 1011.8 1009.8 0.0
30/11:30am 37.2 31.8 -8.9 5 20.4 S 13 22 7 12 1012.1 - 0.0
30/11:00am 37.1 31.0 -12.2 4 20.7 ESE 15 24 8 13 1012.6 - 0.0
30/10:30am 36.0 29.5 -12.8 4 20.1 E 17 26 9 14 1013.1 - 0.0
30/10:00am 35.5 28.8 -10.8 5 19.6 E 19 28 10 15 1013.3 - 0.0
30/09:30am 34.6 28.3 -10.2 5 19.0 E 17 24 9 13 1013.6 - 0.0
30/09:00am 32.8 26.5 -10.6 5 18.0 ESE 17 26 9 14 1013.7 1011.8 0.0
30/08:30am 32.0 26.9 -9.5 6 17.4 SE 11 17 6 9 1013.5 - 0.0
30/08:00am 29.9 25.7 -8.0 8 16.0 SE 7 9 4 5 1013.4 - 0.0
30/07:30am 26.8 24.0 -6.8 10 14.1 CALM 0 0 0 0 1013.4 - 0.0
30/07:00am 22.2 20.3 0.3 23 10.1 CALM 0 0 0 0 1013.2 - 0.0
30/06:30am 18.9 15.9 -5.3 19 9.7 NE 2 4 1 2 1013.0 - 0.0
30/06:00am 20.3 15.3 -8.1 14 10.9 SSW 11 13 6 7 1012.8 1010.8 0.0
30/05:30am 19.7 15.7 -5.8 17 10.2 S 7 9 4 5 1012.6 - 0.0
30/05:00am 20.6 17.9 -2.7 20 10.0 NE 2 11 1 6 1012.4 - 0.0
30/04:30am 23.1 18.0 -5.0 15 11.8 NE 13 17 7 9 1012.3 - 0.0
30/04:00am 26.4 20.5 -10.2 8 14.4 S 15 15 8 8 1011.9 - 0.0
30/03:30am 26.3 22.1 -10.7 8 14.4 SSE 6 13 3 7 1011.9 - 0.0
30/03:00am 25.7 21.0 -5.0 13 13.2 SSE 11 15 6 8 1011.8 1009.8 0.0
30/02:30am 27.5 21.1 -11.1 7 15.1 S 17 19 9 10 1011.8 - 0.0
30/02:00am 27.8 21.4 -11.4 7 15.3 S 17 19 9 10 1012.0 - 0.0
30/01:30am 28.9 21.8 -14.2 5 16.2 S 20 24 11 13 1012.2 - 0.0
30/01:00am 28.3 21.6 -10.0 7 15.4 S 19 26 10 14 1012.6 - 0.0
30/12:30am 29.1 23.2 -10.5 7 15.9 S 15 20 8 11 1012.9 - 0.0
30/12:00am 29.6 24.6 -8.4 8 15.9 S 11 13 6 7 1012.8 1010.8 0.0
 
Date/Time
EST
Temp
°C
App
Temp
°C
Dew
Point
Rel
Hum
%
Delta-T
°C
Wind Press
QNH
hPa
Press
MSL
hPa
Rain
since 9 am
mm
Dir
 
Spd
km/h
Gust
km/h
Spd
kts
Gust
kts
29/11:30pm 29.9 24.9 -7.9 8 16.0 S 11 13 6 7 1012.9 - 0.0
29/11:00pm 31.3 24.4 -10.2 6 17.1 S 20 26 11 14 1012.9 - 0.0
29/10:30pm 32.1 25.3 -11.5 5 17.7 S 19 24 10 13 1012.9 - 0.0
29/10:00pm 31.5 25.9 -6.5 8 16.7 S 15 19 8 10 1012.7 - 0.0
29/09:30pm 31.4 26.6 -2.3 11 15.9 SSE 13 15 7 8 1012.5 - 0.0
29/09:00pm 32.9 27.5 -4.6 9 17.2 S 15 19 8 10 1012.2 1010.2 0.0
29/08:30pm 33.6 27.8 -5.1 8 17.7 S 17 20 9 11 1011.9 - 0.0
29/08:00pm 34.6 29.6 -3.9 8 18.1 S 13 17 7 9 1011.6 - 0.0
29/07:30pm 34.7 29.8 -3.0 9 18.0 S 13 15 7 8 1011.3 - 0.0
29/07:00pm 36.0 30.6 -4.8 7 19.1 S 15 19 8 10 1010.8 - 0.0
29/06:30pm 37.0 32.1 -3.0 8 19.4 S 13 17 7 9 1010.5 - 0.0
29/06:00pm 37.8 33.8 -6.1 6 20.4 E 7 11 4 6 1010.3 1008.3 0.0
29/05:30pm 38.6 31.6 -6.9 5 21.0 S 22 28 12 15 1010.1 - 0.0
29/05:00pm 39.3 34.9 -6.0 5 21.3 SSE 9 17 5 9 1010.1 - 0.0
29/04:30pm 39.0 33.8 -6.6 5 21.2 SE 13 19 7 10 1010.1 - 0.0
29/04:00pm 39.9 35.3 -7.6 5 21.9 NNE 9 17 5 9 1010.0 - 0.0
29/03:30pm 39.3 33.1 -4.7 6 21.1 SSW 19 33 10 18 1010.5 - 0.0
29/03:00pm 38.7 32.3 -1.7 8 20.2 SSE 22 30 12 16 1010.6 1008.6 0.0
29/02:30pm 39.7 33.2 -7.9 5 21.8 S 19 28 10 15 1011.2 - 0.0
29/02:00pm 38.9 33.4 -9.5 4 21.5 SSE 13 22 7 12 1011.7 - 0.0
29/01:30pm 38.5 32.6 -9.9 4 21.3 SE 15 32 8 17 1012.2 - 0.0
29/01:00pm 38.9 32.1 -9.6 4 21.5 SSE 20 28 11 15 1012.7 - 0.0
29/12:30pm 38.2 31.6 -9.8 4 21.1 SE 19 28 10 15 1013.2 - 0.0
29/12:00pm 38.2 31.6 -9.0 4 21.0 SSE 19 26 10 14 1013.6 1011.7 0.0
29/11:30am 37.3 30.2 -7.8 5 20.3 SSE 22 28 12 15 1014.0 - 0.0
29/11:00am 36.4 29.3 -8.9 5 19.9 SSE 22 28 12 15 1014.5 - 0.0
29/10:30am 35.7 29.4 -9.9 5 19.6 SE 17 28 9 15 1014.8 - 0.0
29/10:00am 34.9 27.9 -11.4 4 19.3 ESE 20 28 11 15 1015.0 - 0.0
29/09:30am 33.5 25.8 -10.7 5 18.4 E 24 30 13 16 1015.4 - 0.0
29/09:00am 32.6 25.7 -10.9 5 17.9 SE 20 32 11 17 1015.4 1013.4 0.0
29/08:30am 31.8 25.0 -11.3 5 17.5 SE 19 30 10 16 1015.0 - 0.0
29/08:00am 30.6 22.3 -9.5 7 16.6 SSE 28 33 15 18 1014.9 - 0.0
29/07:30am 29.6 22.9 -8.5 8 15.9 SSE 20 26 11 14 1014.9 - 0.0
29/07:00am 27.8 23.0 -6.0 10 14.5 ESE 11 17 6 9 1014.9 - 0.0
29/06:30am 27.1 21.8 -7.1 10 14.3 ESE 13 17 7 9 1014.7 - 0.0
29/06:00am 27.8 21.0 -9.2 8 15.0 S 20 28 11 15 1013.8 1011.9 0.0
29/05:30am 28.1 21.0 -8.7 8 15.1 S 22 33 12 18 1013.8 - 0.0
29/05:00am 27.8 22.1 -7.1 9 14.7 S 15 22 8 12 1013.6 - 0.0
29/04:30am 27.3 22.6 -5.2 11 14.1 S 11 15 6 8 1013.2 - 0.0
29/04:00am 28.1 24.0 -3.4 12 14.2 ESE 9 13 5 7 1013.0 - 0.0
29/03:30am 28.9 21.8 -4.6 11 14.9 S 24 32 13 17 1012.6 - 0.0
29/03:00am 29.2 22.5 -4.3 11 15.0 SSE 22 30 12 16 1012.6 1010.6 0.0
29/02:30am 29.3 23.6 -4.0 11 15.0 SSE 17 28 9 15 1012.5 - 0.0
29/02:00am 30.0 23.6 -5.1 10 15.6 SSE 20 28 11 15 1012.5 - 0.0
29/01:30am 30.6 22.7 -4.8 10 15.9 S 28 35 15 19 1012.5 - 0.0
29/01:00am 30.9 22.4 -3.3 11 15.8 S 32 44 17 24 1012.8 - 0.0
29/12:30am 31.4 23.7 -2.9 11 16.0 S 28 33 15 18 1012.9 - 0.0
29/12:00am 31.9 24.7 -2.4 11 16.2 S 26 37 14 20 1013.0 1011.0 0.0
 
Date/Time
EST
Temp
°C
App
Temp
°C
Dew
Point
Rel
Hum
%
Delta-T
°C
Wind Press
QNH
hPa
Press
MSL
hPa
Rain
since 9 am
mm
Dir
 
Spd
km/h
Gust
km/h
Spd
kts
Gust
kts
28/11:30pm 32.3 25.3 -0.8 12 16.1 S 26 32 14 17 1013.1 - 0.0
28/11:00pm 32.7 26.9 -0.2 12 16.2 S 20 30 11 16 1013.2 - 0.0
28/10:30pm 32.9 27.3 1.2 13 16.0 S 20 26 11 14 1013.1 - 0.0
28/10:00pm 32.6 27.8 2.5 15 15.5 S 17 17 9 9 1012.9 - 0.0
28/09:30pm 33.1 28.6 2.1 14 15.9 S 15 17 8 9 1012.7 - 0.0
28/09:00pm 33.7 28.9 2.4 14 16.2 S 17 19 9 10 1012.6 1010.6 0.0
28/08:30pm 34.6 29.3 1.8 12 16.9 S 19 22 10 12 1012.3 - 0.0
28/08:00pm 35.0 29.1 2.0 12 17.1 S 22 28 12 15 1011.9 - 0.0
28/07:30pm 35.8 29.4 0.7 11 17.9 S 24 33 13 18 1011.6 - 0.0
28/07:00pm 36.3 29.9 1.2 11 18.1 S 24 32 13 17 1011.2 - 0.0
28/06:30pm 37.1 31.1 0.8 10 18.7 SSE 22 33 12 18 1010.8 - 0.0
28/06:00pm 38.1 30.9 0.4 9 19.4 SSE 28 32 15 17 1010.5 1008.5 0.0

Other Formats:

Comma delimited format used in spreadsheet applications
http://www.bom.gov.au/fwo/IDQ60801/IDQ60801.94332.axf

JavaScript Object Notation format (JSON) in row-major order
http://www.bom.gov.au/fwo/IDQ60801/IDQ60801.94332.json